This is the latest recevied weather packets stored in our database for station/object IQ5QD-13. If no packets are shown the sender has not sent any weather packets the latest 10 day(s).
| Time | Temp. | Humidity | Pressure | Rain* | Wind** | Luminosity | Snow |
|---|---|---|---|---|---|---|---|
| 1788152747 | 61° F | 92% | 758.9 mmHg | 0 in | - | 15 W/m² | - |
| 1788150974 | 61° F | 92% | 758.7 mmHg | 0 in | - | 1 W/m² | - |
| 1788149117 | 60° F | 92% | 758.6 mmHg | 0 in | - | 0 W/m² | - |
| 1788147339 | 61° F | 92% | 758.7 mmHg | 0 in | - | 0 W/m² | - |
| 1788145521 | 62° F | 92% | 758.7 mmHg | 0 in | - | 0 W/m² | - |
| 1788143773 | 62° F | 92% | 758.7 mmHg | 0 in | - | 0 W/m² | - |
| 1788141935 | 62° F | 92% | 758.7 mmHg | 0 in | - | 0 W/m² | - |
| 1788140139 | 62° F | 91% | 758.8 mmHg | 0 in | - | 0 W/m² | - |
| 1788138346 | 62° F | 91% | 758.8 mmHg | 0 in | - | 0 W/m² | - |
| 1788136573 | 63° F | 91% | 758.9 mmHg | 0 in | - | 0 W/m² | - |
| 1788134749 | 63° F | 91% | 758.8 mmHg | 0 in | - | 0 W/m² | - |
| 1788132957 | 63° F | 91% | 758.8 mmHg | 0 in | - | 0 W/m² | - |
| 1788131132 | 64° F | 90% | 758.7 mmHg | 0 in | - | 0 W/m² | - |
| 1788129361 | 65° F | 89% | 758.7 mmHg | 0 in | - | 0 W/m² | - |
| 1788127518 | 65° F | 89% | 758.6 mmHg | 0 in | - | 0 W/m² | - |
| 1788125723 | 66° F | 87% | 758.5 mmHg | 0 in | - | 0 W/m² | - |
| 1788123942 | 68° F | 85% | 758.2 mmHg | 0 in | - | 0 W/m² | - |
| 1788122158 | 70° F | 84% | 758.2 mmHg | 0 in | - | 0 W/m² | - |
| 1788120321 | 69° F | 84% | 758.1 mmHg | 0 in | - | 0 W/m² | - |
| 1788118526 | 70° F | 82% | 758.1 mmHg | 0 in | - | 0 W/m² | - |
| 1788116744 | 72° F | 79% | 758 mmHg | 0 in | - | 0 W/m² | - |
| 1788114974 | 76° F | 72% | 757.7 mmHg | 0 in | - | 0 W/m² | - |
| 1788113132 | 78° F | 67% | 757.4 mmHg | 0 in | - | 2 W/m² | - |
| 1788111342 | 80° F | 63% | 757.3 mmHg | 0 in | - | 14 W/m² | - |
| 1788109533 | 85° F | 57% | 757.3 mmHg | 0 in | - | 26 W/m² | - |
* Rain latest hour (hover to see other rain measurements)
** Current wind speed in m/s (hover to see current wind gust speed)